sensor_id;sensor_type;location;lat;lon;timestamp;temperature;humidity
21672;DHT22;10997;52.242;8.168;2023-04-02T00:02:31;5.00;99.90
21672;DHT22;10997;52.242;8.168;2023-04-02T00:07:32;5.00;99.90
21672;DHT22;10997;52.242;8.168;2023-04-02T00:12:33;5.00;99.90
21672;DHT22;10997;52.242;8.168;2023-04-02T00:17:33;4.90;99.90
21672;DHT22;10997;52.242;8.168;2023-04-02T00:22:34;4.90;99.90
21672;DHT22;10997;52.242;8.168;2023-04-02T00:27:35;4.90;99.90
21672;DHT22;10997;52.242;8.168;2023-04-02T00:32:36;4.80;99.90
21672;DHT22;10997;52.242;8.168;2023-04-02T00:37:36;4.60;99.90
21672;DHT22;10997;52.242;8.168;2023-04-02T00:42:42;4.60;99.90
21672;DHT22;10997;52.242;8.168;2023-04-02T00:47:43;4.50;99.90
21672;DHT22;10997;52.242;8.168;2023-04-02T00:52:46;4.50;99.90
21672;DHT22;10997;52.242;8.168;2023-04-02T00:57:50;4.40;99.90
21672;DHT22;10997;52.242;8.168;2023-04-02T01:19:10;3.90;99.90
21672;DHT22;10997;52.242;8.168;2023-04-02T01:24:13;3.90;99.90
21672;DHT22;10997;52.242;8.168;2023-04-02T01:29:17;3.80;99.90
21672;DHT22;10997;52.242;8.168;2023-04-02T01:34:21;3.80;99.90
21672;DHT22;10997;52.242;8.168;2023-04-02T01:44:33;3.70;99.90
21672;DHT22;10997;52.242;8.168;2023-04-02T01:49:36;3.60;99.90
21672;DHT22;10997;52.242;8.168;2023-04-02T01:54:40;3.60;99.90
21672;DHT22;10997;52.242;8.168;2023-04-02T01:59:41;3.50;99.90
21672;DHT22;10997;52.242;8.168;2023-04-02T02:04:42;3.40;99.90
21672;DHT22;10997;52.242;8.168;2023-04-02T02:09:43;3.20;99.90
21672;DHT22;10997;52.242;8.168;2023-04-02T02:14:46;3.20;99.90
21672;DHT22;10997;52.242;8.168;2023-04-02T02:19:56;3.10;99.90
21672;DHT22;10997;52.242;8.168;2023-04-02T02:25:00;3.00;99.90
21672;DHT22;10997;52.242;8.168;2023-04-02T02:30:20;3.00;99.90
21672;DHT22;10997;52.242;8.168;2023-04-02T02:35:28;3.00;99.90
21672;DHT22;10997;52.242;8.168;2023-04-02T02:40:38;3.00;99.90
21672;DHT22;10997;52.242;8.168;2023-04-02T02:45:40;3.00;99.90
21672;DHT22;10997;52.242;8.168;2023-04-02T02:50:43;2.90;99.90
21672;DHT22;10997;52.242;8.168;2023-04-02T02:55:44;2.90;99.90
21672;DHT22;10997;52.242;8.168;2023-04-02T03:00:46;2.90;99.90
21672;DHT22;10997;52.242;8.168;2023-04-02T03:05:54;2.80;99.90
21672;DHT22;10997;52.242;8.168;2023-04-02T03:11:02;2.80;99.90
21672;DHT22;10997;52.242;8.168;2023-04-02T03:21:42;2.80;99.90
21672;DHT22;10997;52.242;8.168;2023-04-02T03:26:52;2.80;99.90
21672;DHT22;10997;52.242;8.168;2023-04-02T03:31:59;2.70;99.90
21672;DHT22;10997;52.242;8.168;2023-04-02T03:37:17;2.70;99.90
21672;DHT22;10997;52.242;8.168;2023-04-02T03:42:24;2.70;99.90
21672;DHT22;10997;52.242;8.168;2023-04-02T03:52:36;2.60;99.90
21672;DHT22;10997;52.242;8.168;2023-04-02T04:03:04;2.60;99.90
21672;DHT22;10997;52.242;8.168;2023-04-02T04:08:14;2.50;99.90
21672;DHT22;10997;52.242;8.168;2023-04-02T04:13:21;2.50;99.90
21672;DHT22;10997;52.242;8.168;2023-04-02T04:18:34;2.50;99.90
21672;DHT22;10997;52.242;8.168;2023-04-02T04:23:39;2.40;99.90
21672;DHT22;10997;52.242;8.168;2023-04-02T04:29:00;2.40;99.90
21672;DHT22;10997;52.242;8.168;2023-04-02T04:34:10;2.40;99.90
21672;DHT22;10997;52.242;8.168;2023-04-02T04:39:53;2.40;99.90
21672;DHT22;10997;52.242;8.168;2023-04-02T04:44:59;2.40;99.90
21672;DHT22;10997;52.242;8.168;2023-04-02T04:50:32;2.30;99.90
21672;DHT22;10997;52.242;8.168;2023-04-02T04:55:44;2.40;99.90
21672;DHT22;10997;52.242;8.168;2023-04-02T05:01:12;2.40;99.90
21672;DHT22;10997;52.242;8.168;2023-04-02T05:06:25;2.40;99.90
21672;DHT22;10997;52.242;8.168;2023-04-02T05:11:33;2.40;99.90
21672;DHT22;10997;52.242;8.168;2023-04-02T05:16:50;2.40;99.90
21672;DHT22;10997;52.242;8.168;2023-04-02T05:22:11;2.40;99.90
21672;DHT22;10997;52.242;8.168;2023-04-02T09:55:26;5.50;99.90
21672;DHT22;10997;52.242;8.168;2023-04-02T10:00:28;5.60;99.90
21672;DHT22;10997;52.242;8.168;2023-04-02T10:05:29;5.80;99.90
21672;DHT22;10997;52.242;8.168;2023-04-02T10:10:40;6.00;99.90
21672;DHT22;10997;52.242;8.168;2023-04-02T10:16:02;6.20;99.90
21672;DHT22;10997;52.242;8.168;2023-04-02T10:21:05;6.40;99.90
21672;DHT22;10997;52.242;8.168;2023-04-02T10:26:20;6.50;99.90
21672;DHT22;10997;52.242;8.168;2023-04-02T10:31:31;6.60;99.90
21672;DHT22;10997;52.242;8.168;2023-04-02T10:36:49;6.50;99.90
21672;DHT22;10997;52.242;8.168;2023-04-02T10:41:59;6.80;99.90
21672;DHT22;10997;52.242;8.168;2023-04-02T10:47:32;7.20;99.90
21672;DHT22;10997;52.242;8.168;2023-04-02T10:53:10;7.00;99.90
21672;DHT22;10997;52.242;8.168;2023-04-02T10:58:25;6.80;99.90
21672;DHT22;10997;52.242;8.168;2023-04-02T11:04:15;6.70;99.90
21672;DHT22;10997;52.242;8.168;2023-04-02T11:09:06;7.00;99.90
21672;DHT22;10997;52.242;8.168;2023-04-02T11:14:28;6.60;99.90
21672;DHT22;10997;52.242;8.168;2023-04-02T11:19:30;6.60;99.90
21672;DHT22;10997;52.242;8.168;2023-04-02T11:24:37;6.70;99.90
21672;DHT22;10997;52.242;8.168;2023-04-02T11:39:56;8.10;99.90
21672;DHT22;10997;52.242;8.168;2023-04-02T11:50:41;8.90;99.90
21672;DHT22;10997;52.242;8.168;2023-04-02T11:55:44;8.20;99.90
21672;DHT22;10997;52.242;8.168;2023-04-02T12:06:24;7.60;99.90
21672;DHT22;10997;52.242;8.168;2023-04-02T12:11:35;7.20;99.90
21672;DHT22;10997;52.242;8.168;2023-04-02T12:16:36;6.70;99.90
21672;DHT22;10997;52.242;8.168;2023-04-02T12:21:37;7.10;99.90
21672;DHT22;10997;52.242;8.168;2023-04-02T12:26:38;7.70;99.90
21672;DHT22;10997;52.242;8.168;2023-04-02T12:31:43;8.10;99.90
21672;DHT22;10997;52.242;8.168;2023-04-02T12:36:58;8.00;99.90
21672;DHT22;10997;52.242;8.168;2023-04-02T12:41:59;7.90;99.90
21672;DHT22;10997;52.242;8.168;2023-04-02T12:47:00;7.60;99.90
21672;DHT22;10997;52.242;8.168;2023-04-02T12:52:06;7.40;99.90
21672;DHT22;10997;52.242;8.168;2023-04-02T13:02:30;8.30;99.90
21672;DHT22;10997;52.242;8.168;2023-04-02T13:07:32;8.60;99.90
21672;DHT22;10997;52.242;8.168;2023-04-02T13:12:34;8.80;99.90
21672;DHT22;10997;52.242;8.168;2023-04-02T13:22:40;9.20;99.90
21672;DHT22;10997;52.242;8.168;2023-04-02T13:27:40;9.50;99.90
21672;DHT22;10997;52.242;8.168;2023-04-02T13:32:41;9.70;99.90
21672;DHT22;10997;52.242;8.168;2023-04-02T13:37:41;10.00;99.90
21672;DHT22;10997;52.242;8.168;2023-04-02T13:42:43;10.00;99.90
21672;DHT22;10997;52.242;8.168;2023-04-02T13:47:44;9.60;99.90
21672;DHT22;10997;52.242;8.168;2023-04-02T13:52:45;9.90;99.90
21672;DHT22;10997;52.242;8.168;2023-04-02T13:57:45;9.70;99.90
21672;DHT22;10997;52.242;8.168;2023-04-02T14:02:49;9.80;99.90
21672;DHT22;10997;52.242;8.168;2023-04-02T14:13:24;9.90;99.90
21672;DHT22;10997;52.242;8.168;2023-04-02T14:24:14;10.20;99.90
21672;DHT22;10997;52.242;8.168;2023-04-02T14:29:31;10.30;99.90
21672;DHT22;10997;52.242;8.168;2023-04-02T14:34:43;10.30;99.90
21672;DHT22;10997;52.242;8.168;2023-04-02T14:45:16;10.40;99.90
21672;DHT22;10997;52.242;8.168;2023-04-02T14:50:25;10.40;99.90
21672;DHT22;10997;52.242;8.168;2023-04-02T14:55:34;10.60;99.90
21672;DHT22;10997;52.242;8.168;2023-04-02T15:00:44;10.40;99.90
21672;DHT22;10997;52.242;8.168;2023-04-02T15:05:53;10.30;99.90
21672;DHT22;10997;52.242;8.168;2023-04-02T15:11:01;10.60;99.90
21672;DHT22;10997;52.242;8.168;2023-04-02T15:16:09;10.80;99.90
21672;DHT22;10997;52.242;8.168;2023-04-02T15:31:47;10.20;99.90
21672;DHT22;10997;52.242;8.168;2023-04-02T15:37:21;10.00;99.90
21672;DHT22;10997;52.242;8.168;2023-04-02T15:42:32;9.80;99.90
21672;DHT22;10997;52.242;8.168;2023-04-02T15:52:46;10.50;99.90
21672;DHT22;10997;52.242;8.168;2023-04-02T16:03:09;9.70;99.90
21672;DHT22;10997;52.242;8.168;2023-04-02T16:18:58;9.90;99.90
21672;DHT22;10997;52.242;8.168;2023-04-02T16:24:00;9.60;99.90
21672;DHT22;10997;52.242;8.168;2023-04-02T16:29:29;9.50;99.90
21672;DHT22;10997;52.242;8.168;2023-04-02T16:39:50;9.70;99.90
21672;DHT22;10997;52.242;8.168;2023-04-02T16:56:06;9.20;99.90
21672;DHT22;10997;52.242;8.168;2023-04-02T17:01:33;9.00;99.90
21672;DHT22;10997;52.242;8.168;2023-04-02T17:06:51;8.80;99.90
21672;DHT22;10997;52.242;8.168;2023-04-02T17:12:02;8.80;99.90
21672;DHT22;10997;52.242;8.168;2023-04-02T17:17:04;9.00;99.90
21672;DHT22;10997;52.242;8.168;2023-04-02T17:22:05;9.20;99.90
21672;DHT22;10997;52.242;8.168;2023-04-02T17:27:30;9.30;99.90
21672;DHT22;10997;52.242;8.168;2023-04-02T17:32:32;9.20;99.90
21672;DHT22;10997;52.242;8.168;2023-04-02T17:37:42;8.80;99.90
21672;DHT22;10997;52.242;8.168;2023-04-02T17:42:52;8.50;99.90
21672;DHT22;10997;52.242;8.168;2023-04-02T17:48:10;8.30;99.90
21672;DHT22;10997;52.242;8.168;2023-04-02T17:53:38;8.10;99.90
21672;DHT22;10997;52.242;8.168;2023-04-02T17:58:48;7.90;99.90
21672;DHT22;10997;52.242;8.168;2023-04-02T18:04:12;7.70;99.90
21672;DHT22;10997;52.242;8.168;2023-04-02T18:09:43;7.60;99.90
21672;DHT22;10997;52.242;8.168;2023-04-02T18:15:01;7.50;99.90
21672;DHT22;10997;52.242;8.168;2023-04-02T18:25:40;7.20;99.90
21672;DHT22;10997;52.242;8.168;2023-04-02T18:31:11;7.10;99.90
21672;DHT22;10997;52.242;8.168;2023-04-02T18:41:33;6.90;99.90
21672;DHT22;10997;52.242;8.168;2023-04-02T18:46:49;6.90;99.90
21672;DHT22;10997;52.242;8.168;2023-04-02T18:52:04;6.80;99.90
21672;DHT22;10997;52.242;8.168;2023-04-02T18:57:35;6.80;99.90
21672;DHT22;10997;52.242;8.168;2023-04-02T19:02:41;6.80;99.90
21672;DHT22;10997;52.242;8.168;2023-04-02T19:07:44;6.70;99.90
21672;DHT22;10997;52.242;8.168;2023-04-02T19:12:46;6.70;99.90
21672;DHT22;10997;52.242;8.168;2023-04-02T19:18:02;6.60;99.90
21672;DHT22;10997;52.242;8.168;2023-04-02T19:23:38;6.50;99.90
21672;DHT22;10997;52.242;8.168;2023-04-02T19:34:57;6.30;99.90
21672;DHT22;10997;52.242;8.168;2023-04-02T19:40:13;6.20;99.90
21672;DHT22;10997;52.242;8.168;2023-04-02T19:50:28;6.00;99.90
21672;DHT22;10997;52.242;8.168;2023-04-02T19:55:28;5.80;99.90
21672;DHT22;10997;52.242;8.168;2023-04-02T20:00:29;5.70;99.90
21672;DHT22;10997;52.242;8.168;2023-04-02T20:05:30;5.60;99.90
21672;DHT22;10997;52.242;8.168;2023-04-02T20:10:30;5.60;99.90
21672;DHT22;10997;52.242;8.168;2023-04-02T20:15:31;5.50;99.90
21672;DHT22;10997;52.242;8.168;2023-04-02T20:20:32;5.50;99.90
21672;DHT22;10997;52.242;8.168;2023-04-02T20:25:32;5.50;99.90
21672;DHT22;10997;52.242;8.168;2023-04-02T20:30:33;5.50;99.90
21672;DHT22;10997;52.242;8.168;2023-04-02T20:35:33;5.40;99.90
21672;DHT22;10997;52.242;8.168;2023-04-02T20:40:34;5.30;99.90
21672;DHT22;10997;52.242;8.168;2023-04-02T20:45:36;5.20;99.90
21672;DHT22;10997;52.242;8.168;2023-04-02T20:50:37;5.10;99.90
21672;DHT22;10997;52.242;8.168;2023-04-02T20:55:37;5.10;99.90
21672;DHT22;10997;52.242;8.168;2023-04-02T21:00:38;5.00;99.90
21672;DHT22;10997;52.242;8.168;2023-04-02T21:05:46;4.90;99.90
21672;DHT22;10997;52.242;8.168;2023-04-02T21:10:46;4.80;99.90
21672;DHT22;10997;52.242;8.168;2023-04-02T21:15:47;4.70;99.90
21672;DHT22;10997;52.242;8.168;2023-04-02T21:20:59;4.60;99.90
21672;DHT22;10997;52.242;8.168;2023-04-02T21:26:02;4.60;99.90
21672;DHT22;10997;52.242;8.168;2023-04-02T21:31:11;4.50;99.90
21672;DHT22;10997;52.242;8.168;2023-04-02T21:36:17;4.40;99.90
21672;DHT22;10997;52.242;8.168;2023-04-02T21:46:25;4.30;99.90
21672;DHT22;10997;52.242;8.168;2023-04-02T21:51:31;4.30;99.90
21672;DHT22;10997;52.242;8.168;2023-04-02T21:56:34;4.30;99.90
21672;DHT22;10997;52.242;8.168;2023-04-02T22:01:44;4.20;99.90
21672;DHT22;10997;52.242;8.168;2023-04-02T22:06:45;4.10;99.90
21672;DHT22;10997;52.242;8.168;2023-04-02T22:11:48;4.00;99.90
21672;DHT22;10997;52.242;8.168;2023-04-02T22:16:50;3.90;99.90
21672;DHT22;10997;52.242;8.168;2023-04-02T22:21:51;3.90;99.90
21672;DHT22;10997;52.242;8.168;2023-04-02T22:26:52;3.80;99.90
21672;DHT22;10997;52.242;8.168;2023-04-02T22:31:53;3.70;99.90
21672;DHT22;10997;52.242;8.168;2023-04-02T22:36:53;3.60;99.90
21672;DHT22;10997;52.242;8.168;2023-04-02T22:41:54;3.50;99.90
21672;DHT22;10997;52.242;8.168;2023-04-02T22:46:54;3.50;99.90
21672;DHT22;10997;52.242;8.168;2023-04-02T22:51:55;3.40;99.90
21672;DHT22;10997;52.242;8.168;2023-04-02T22:56:56;3.40;99.90
21672;DHT22;10997;52.242;8.168;2023-04-02T23:01:56;3.40;99.90
21672;DHT22;10997;52.242;8.168;2023-04-02T23:06:57;3.30;99.90
21672;DHT22;10997;52.242;8.168;2023-04-02T23:11:57;3.20;99.90
21672;DHT22;10997;52.242;8.168;2023-04-02T23:16:58;3.20;99.90
21672;DHT22;10997;52.242;8.168;2023-04-02T23:21:59;3.10;99.90
21672;DHT22;10997;52.242;8.168;2023-04-02T23:26:59;3.00;99.90
21672;DHT22;10997;52.242;8.168;2023-04-02T23:32:00;2.90;99.90
21672;DHT22;10997;52.242;8.168;2023-04-02T23:37:00;2.80;99.90
21672;DHT22;10997;52.242;8.168;2023-04-02T23:42:01;2.80;99.90
21672;DHT22;10997;52.242;8.168;2023-04-02T23:47:02;2.80;99.90
21672;DHT22;10997;52.242;8.168;2023-04-02T23:52:02;2.70;99.90
21672;DHT22;10997;52.242;8.168;2023-04-02T23:57:03;2.70;99.90
